Metar Aviation Weather Data     YPAD Adelaide International Airport
Temperature
13°C Temperature
0°C Dewpoint
41% Humidity



Wind
27 KM/H
17 MPH
8 M/S
15 KTS



130°
SE
Current Conditions

Partly Cloudy Partly Cloudy
Pressure 1023.92 (hPa) - 30.24 (inHg)
Visibility 6.2 (mile) - 10 (km)
Airport
Airport-code YPAD

Location: Adelaide International Airport
Distance: 150 (km)

Metar:
YPAD 242330Z 13015KT 9999 FEW031 13/00 Q1024 NOSIG

Time: 25-10-2020 10:00 ACDT